sensor_id;sensor_type;location;lat;lon;timestamp;P1;durP1;ratioP1;P2;durP2;ratioP2
42084;SDS011;27746;52.228;20.890;2023-04-19T00:02:21;8.10;;;5.45;;
42084;SDS011;27746;52.228;20.890;2023-04-19T00:04:49;9.27;;;6.07;;
42084;SDS011;27746;52.228;20.890;2023-04-19T00:07:17;8.55;;;5.40;;
42084;SDS011;27746;52.228;20.890;2023-04-19T00:09:44;9.57;;;5.78;;
42084;SDS011;27746;52.228;20.890;2023-04-19T00:12:11;7.15;;;4.40;;
42084;SDS011;27746;52.228;20.890;2023-04-19T00:14:38;8.82;;;5.10;;
42084;SDS011;27746;52.228;20.890;2023-04-19T00:17:04;8.23;;;4.82;;
42084;SDS011;27746;52.228;20.890;2023-04-19T00:19:33;8.48;;;4.72;;
42084;SDS011;27746;52.228;20.890;2023-04-19T00:21:59;6.82;;;4.35;;
42084;SDS011;27746;52.228;20.890;2023-04-19T00:24:26;7.72;;;4.80;;
42084;SDS011;27746;52.228;20.890;2023-04-19T00:26:53;9.80;;;4.47;;
42084;SDS011;27746;52.228;20.890;2023-04-19T00:29:21;6.63;;;4.20;;
42084;SDS011;27746;52.228;20.890;2023-04-19T00:31:48;7.50;;;4.40;;
42084;SDS011;27746;52.228;20.890;2023-04-19T00:34:15;7.57;;;4.45;;
42084;SDS011;27746;52.228;20.890;2023-04-19T00:36:43;10.27;;;5.57;;
42084;SDS011;27746;52.228;20.890;2023-04-19T00:39:10;8.30;;;4.55;;
42084;SDS011;27746;52.228;20.890;2023-04-19T00:41:37;7.03;;;4.75;;
42084;SDS011;27746;52.228;20.890;2023-04-19T00:44:03;8.13;;;5.40;;
42084;SDS011;27746;52.228;20.890;2023-04-19T00:46:31;9.82;;;4.90;;
42084;SDS011;27746;52.228;20.890;2023-04-19T00:48:58;10.95;;;5.50;;
42084;SDS011;27746;52.228;20.890;2023-04-19T00:51:25;10.30;;;6.07;;
42084;SDS011;27746;52.228;20.890;2023-04-19T00:53:53;11.68;;;6.05;;
42084;SDS011;27746;52.228;20.890;2023-04-19T00:56:21;9.38;;;5.72;;
42084;SDS011;27746;52.228;20.890;2023-04-19T00:58:48;10.07;;;6.05;;
42084;SDS011;27746;52.228;20.890;2023-04-19T01:01:15;9.20;;;6.07;;
42084;SDS011;27746;52.228;20.890;2023-04-19T01:03:42;7.82;;;5.60;;
42084;SDS011;27746;52.228;20.890;2023-04-19T01:06:09;12.63;;;6.75;;
42084;SDS011;27746;52.228;20.890;2023-04-19T01:08:36;11.40;;;5.90;;
42084;SDS011;27746;52.228;20.890;2023-04-19T01:11:05;10.70;;;6.22;;
42084;SDS011;27746;52.228;20.890;2023-04-19T01:13:32;10.05;;;6.15;;
42084;SDS011;27746;52.228;20.890;2023-04-19T01:15:59;11.68;;;5.45;;
42084;SDS011;27746;52.228;20.890;2023-04-19T01:18:26;10.70;;;6.30;;
42084;SDS011;27746;52.228;20.890;2023-04-19T01:20:56;10.68;;;6.20;;
42084;SDS011;27746;52.228;20.890;2023-04-19T01:23:25;10.23;;;6.47;;
42084;SDS011;27746;52.228;20.890;2023-04-19T01:25:52;10.20;;;5.97;;
42084;SDS011;27746;52.228;20.890;2023-04-19T01:28:19;9.10;;;6.38;;
42084;SDS011;27746;52.228;20.890;2023-04-19T01:30:46;11.55;;;7.40;;
42084;SDS011;27746;52.228;20.890;2023-04-19T01:33:14;9.95;;;7.10;;
42084;SDS011;27746;52.228;20.890;2023-04-19T01:35:42;12.55;;;7.13;;
42084;SDS011;27746;52.228;20.890;2023-04-19T01:38:08;10.02;;;6.40;;
42084;SDS011;27746;52.228;20.890;2023-04-19T01:40:37;11.80;;;7.28;;
42084;SDS011;27746;52.228;20.890;2023-04-19T01:43:03;10.60;;;6.90;;
42084;SDS011;27746;52.228;20.890;2023-04-19T01:45:31;11.88;;;7.35;;
42084;SDS011;27746;52.228;20.890;2023-04-19T01:48:00;9.88;;;6.88;;
42084;SDS011;27746;52.228;20.890;2023-04-19T01:50:28;11.48;;;6.68;;
42084;SDS011;27746;52.228;20.890;2023-04-19T01:52:55;10.07;;;6.82;;
42084;SDS011;27746;52.228;20.890;2023-04-19T01:55:22;12.93;;;6.95;;
42084;SDS011;27746;52.228;20.890;2023-04-19T01:57:53;12.55;;;7.32;;
42084;SDS011;27746;52.228;20.890;2023-04-19T02:00:20;11.68;;;7.13;;
42084;SDS011;27746;52.228;20.890;2023-04-19T02:02:47;12.88;;;7.00;;
42084;SDS011;27746;52.228;20.890;2023-04-19T02:05:14;11.65;;;7.32;;
42084;SDS011;27746;52.228;20.890;2023-04-19T02:07:41;13.77;;;7.18;;
42084;SDS011;27746;52.228;20.890;2023-04-19T02:10:08;11.65;;;6.32;;
42084;SDS011;27746;52.228;20.890;2023-04-19T02:12:36;12.90;;;8.07;;
42084;SDS011;27746;52.228;20.890;2023-04-19T02:15:05;13.07;;;6.90;;
42084;SDS011;27746;52.228;20.890;2023-04-19T02:17:33;15.45;;;7.40;;
42084;SDS011;27746;52.228;20.890;2023-04-19T02:20:00;13.10;;;8.05;;
42084;SDS011;27746;52.228;20.890;2023-04-19T02:22:28;10.85;;;7.20;;
42084;SDS011;27746;52.228;20.890;2023-04-19T02:24:55;11.70;;;7.78;;
42084;SDS011;27746;52.228;20.890;2023-04-19T02:27:23;12.60;;;7.72;;
42084;SDS011;27746;52.228;20.890;2023-04-19T02:29:51;10.95;;;7.10;;
42084;SDS011;27746;52.228;20.890;2023-04-19T02:32:20;11.82;;;7.53;;
42084;SDS011;27746;52.228;20.890;2023-04-19T02:34:47;12.70;;;7.65;;
42084;SDS011;27746;52.228;20.890;2023-04-19T02:37:14;11.70;;;7.78;;
42084;SDS011;27746;52.228;20.890;2023-04-19T02:39:42;12.00;;;7.68;;
42084;SDS011;27746;52.228;20.890;2023-04-19T02:42:09;11.95;;;8.27;;
42084;SDS011;27746;52.228;20.890;2023-04-19T02:44:36;11.65;;;7.85;;
42084;SDS011;27746;52.228;20.890;2023-04-19T02:47:03;13.18;;;8.05;;
42084;SDS011;27746;52.228;20.890;2023-04-19T02:49:31;13.02;;;8.15;;
42084;SDS011;27746;52.228;20.890;2023-04-19T02:52:01;11.65;;;7.70;;
42084;SDS011;27746;52.228;20.890;2023-04-19T02:54:27;13.20;;;8.57;;
42084;SDS011;27746;52.228;20.890;2023-04-19T02:56:54;11.68;;;8.38;;
42084;SDS011;27746;52.228;20.890;2023-04-19T02:59:21;14.80;;;7.85;;
42084;SDS011;27746;52.228;20.890;2023-04-19T03:01:48;13.25;;;8.60;;
42084;SDS011;27746;52.228;20.890;2023-04-19T03:04:15;14.38;;;9.98;;
42084;SDS011;27746;52.228;20.890;2023-04-19T03:06:44;15.07;;;10.25;;
42084;SDS011;27746;52.228;20.890;2023-04-19T03:09:10;14.93;;;8.98;;
42084;SDS011;27746;52.228;20.890;2023-04-19T03:11:37;12.98;;;9.55;;
42084;SDS011;27746;52.228;20.890;2023-04-19T03:14:04;13.98;;;8.93;;
42084;SDS011;27746;52.228;20.890;2023-04-19T03:16:31;14.68;;;9.60;;
42084;SDS011;27746;52.228;20.890;2023-04-19T03:18:58;13.65;;;8.68;;
42084;SDS011;27746;52.228;20.890;2023-04-19T03:21:25;12.63;;;7.82;;
42084;SDS011;27746;52.228;20.890;2023-04-19T03:23:54;10.43;;;7.38;;
42084;SDS011;27746;52.228;20.890;2023-04-19T03:26:21;13.82;;;8.55;;
42084;SDS011;27746;52.228;20.890;2023-04-19T03:28:48;14.40;;;9.05;;
42084;SDS011;27746;52.228;20.890;2023-04-19T03:31:15;19.00;;;9.38;;
42084;SDS011;27746;52.228;20.890;2023-04-19T03:33:42;13.57;;;8.40;;
42084;SDS011;27746;52.228;20.890;2023-04-19T03:36:08;14.77;;;8.95;;
42084;SDS011;27746;52.228;20.890;2023-04-19T03:38:35;13.38;;;8.40;;
42084;SDS011;27746;52.228;20.890;2023-04-19T03:41:04;15.02;;;9.68;;
42084;SDS011;27746;52.228;20.890;2023-04-19T03:43:31;16.25;;;9.73;;
42084;SDS011;27746;52.228;20.890;2023-04-19T03:45:57;13.73;;;7.82;;
42084;SDS011;27746;52.228;20.890;2023-04-19T03:48:24;12.55;;;7.90;;
42084;SDS011;27746;52.228;20.890;2023-04-19T03:50:52;12.70;;;7.57;;
42084;SDS011;27746;52.228;20.890;2023-04-19T03:53:18;14.10;;;9.15;;
42084;SDS011;27746;52.228;20.890;2023-04-19T03:55:45;14.07;;;8.82;;
42084;SDS011;27746;52.228;20.890;2023-04-19T03:58:13;14.10;;;9.82;;
42084;SDS011;27746;52.228;20.890;2023-04-19T04:00:40;12.38;;;8.70;;
42084;SDS011;27746;52.228;20.890;2023-04-19T04:03:07;13.98;;;8.35;;
42084;SDS011;27746;52.228;20.890;2023-04-19T04:05:34;12.60;;;8.65;;
42084;SDS011;27746;52.228;20.890;2023-04-19T04:08:01;12.65;;;8.30;;
42084;SDS011;27746;52.228;20.890;2023-04-19T04:10:28;14.68;;;8.55;;
42084;SDS011;27746;52.228;20.890;2023-04-19T04:12:55;13.57;;;9.32;;
42084;SDS011;27746;52.228;20.890;2023-04-19T04:15:23;13.05;;;8.82;;
42084;SDS011;27746;52.228;20.890;2023-04-19T04:17:50;15.50;;;9.65;;
42084;SDS011;27746;52.228;20.890;2023-04-19T04:20:17;12.65;;;9.07;;
42084;SDS011;27746;52.228;20.890;2023-04-19T04:22:44;19.42;;;12.43;;
42084;SDS011;27746;52.228;20.890;2023-04-19T04:25:11;16.38;;;10.18;;
42084;SDS011;27746;52.228;20.890;2023-04-19T04:27:40;15.13;;;10.20;;
42084;SDS011;27746;52.228;20.890;2023-04-19T04:30:08;13.07;;;9.07;;
42084;SDS011;27746;52.228;20.890;2023-04-19T04:32:37;13.15;;;8.05;;
42084;SDS011;27746;52.228;20.890;2023-04-19T04:35:05;13.40;;;9.30;;
42084;SDS011;27746;52.228;20.890;2023-04-19T04:37:33;15.93;;;8.85;;
42084;SDS011;27746;52.228;20.890;2023-04-19T04:40:01;12.10;;;8.75;;
42084;SDS011;27746;52.228;20.890;2023-04-19T04:42:29;13.18;;;8.23;;
42084;SDS011;27746;52.228;20.890;2023-04-19T04:44:56;14.70;;;9.43;;
42084;SDS011;27746;52.228;20.890;2023-04-19T04:47:29;15.30;;;8.90;;
42084;SDS011;27746;52.228;20.890;2023-04-19T04:49:57;12.75;;;8.13;;
42084;SDS011;27746;52.228;20.890;2023-04-19T04:52:24;10.43;;;7.85;;
42084;SDS011;27746;52.228;20.890;2023-04-19T04:54:51;14.27;;;8.70;;
42084;SDS011;27746;52.228;20.890;2023-04-19T04:57:18;10.38;;;7.35;;
42084;SDS011;27746;52.228;20.890;2023-04-19T04:59:45;13.95;;;8.63;;
42084;SDS011;27746;52.228;20.890;2023-04-19T05:02:12;13.02;;;8.43;;
42084;SDS011;27746;52.228;20.890;2023-04-19T05:04:39;15.18;;;8.43;;
42084;SDS011;27746;52.228;20.890;2023-04-19T05:07:07;22.08;;;13.00;;
42084;SDS011;27746;52.228;20.890;2023-04-19T05:09:34;12.15;;;8.98;;
42084;SDS011;27746;52.228;20.890;2023-04-19T05:12:01;13.02;;;8.77;;
42084;SDS011;27746;52.228;20.890;2023-04-19T05:14:29;14.30;;;8.93;;
42084;SDS011;27746;52.228;20.890;2023-04-19T05:16:55;15.05;;;9.30;;
42084;SDS011;27746;52.228;20.890;2023-04-19T05:19:22;15.30;;;9.07;;
42084;SDS011;27746;52.228;20.890;2023-04-19T05:21:49;14.73;;;9.57;;
42084;SDS011;27746;52.228;20.890;2023-04-19T05:24:17;15.70;;;9.45;;
42084;SDS011;27746;52.228;20.890;2023-04-19T05:26:44;14.63;;;9.18;;
42084;SDS011;27746;52.228;20.890;2023-04-19T05:29:11;15.23;;;9.57;;
42084;SDS011;27746;52.228;20.890;2023-04-19T05:31:38;15.77;;;9.77;;
42084;SDS011;27746;52.228;20.890;2023-04-19T05:34:05;15.48;;;9.20;;
42084;SDS011;27746;52.228;20.890;2023-04-19T05:36:32;14.15;;;9.52;;
42084;SDS011;27746;52.228;20.890;2023-04-19T05:38:58;15.93;;;9.45;;
42084;SDS011;27746;52.228;20.890;2023-04-19T05:41:27;12.98;;;9.15;;
42084;SDS011;27746;52.228;20.890;2023-04-19T05:43:53;12.27;;;8.50;;
42084;SDS011;27746;52.228;20.890;2023-04-19T05:46:20;13.07;;;8.70;;
42084;SDS011;27746;52.228;20.890;2023-04-19T05:48:47;14.65;;;8.80;;
42084;SDS011;27746;52.228;20.890;2023-04-19T05:51:14;13.68;;;9.10;;
42084;SDS011;27746;52.228;20.890;2023-04-19T05:53:43;15.60;;;9.25;;
42084;SDS011;27746;52.228;20.890;2023-04-19T05:56:10;14.90;;;9.55;;
42084;SDS011;27746;52.228;20.890;2023-04-19T05:58:38;14.57;;;9.38;;
42084;SDS011;27746;52.228;20.890;2023-04-19T06:01:05;14.20;;;8.90;;
42084;SDS011;27746;52.228;20.890;2023-04-19T06:03:32;14.05;;;9.13;;
42084;SDS011;27746;52.228;20.890;2023-04-19T06:05:59;18.85;;;9.27;;
42084;SDS011;27746;52.228;20.890;2023-04-19T06:08:26;15.75;;;9.15;;
42084;SDS011;27746;52.228;20.890;2023-04-19T06:10:52;20.73;;;10.63;;
42084;SDS011;27746;52.228;20.890;2023-04-19T06:13:20;114.88;;;19.85;;
42084;SDS011;27746;52.228;20.890;2023-04-19T06:16:01;146.65;;;25.63;;
42084;SDS011;27746;52.228;20.890;2023-04-19T06:18:32;33.08;;;12.35;;
42084;SDS011;27746;52.228;20.890;2023-04-19T06:20:59;21.95;;;11.45;;
42084;SDS011;27746;52.228;20.890;2023-04-19T06:23:26;21.45;;;10.90;;
42084;SDS011;27746;52.228;20.890;2023-04-19T06:25:52;18.70;;;10.95;;
42084;SDS011;27746;52.228;20.890;2023-04-19T06:28:19;23.95;;;12.35;;
42084;SDS011;27746;52.228;20.890;2023-04-19T06:30:46;25.42;;;11.60;;
42084;SDS011;27746;52.228;20.890;2023-04-19T06:33:15;25.10;;;10.00;;
42084;SDS011;27746;52.228;20.890;2023-04-19T06:35:42;95.97;;;18.48;;
42084;SDS011;27746;52.228;20.890;2023-04-19T06:38:09;40.35;;;13.68;;
42084;SDS011;27746;52.228;20.890;2023-04-19T06:40:36;20.40;;;11.20;;
42084;SDS011;27746;52.228;20.890;2023-04-19T06:43:02;17.95;;;9.93;;
42084;SDS011;27746;52.228;20.890;2023-04-19T06:45:29;16.60;;;9.65;;
42084;SDS011;27746;52.228;20.890;2023-04-19T06:47:56;19.70;;;10.80;;
42084;SDS011;27746;52.228;20.890;2023-04-19T06:50:24;17.17;;;10.07;;
42084;SDS011;27746;52.228;20.890;2023-04-19T06:52:52;16.20;;;9.23;;
42084;SDS011;27746;52.228;20.890;2023-04-19T06:55:19;17.17;;;10.00;;
42084;SDS011;27746;52.228;20.890;2023-04-19T06:57:46;15.25;;;10.25;;
42084;SDS011;27746;52.228;20.890;2023-04-19T07:00:13;16.73;;;10.50;;
42084;SDS011;27746;52.228;20.890;2023-04-19T07:02:40;20.67;;;10.98;;
42084;SDS011;27746;52.228;20.890;2023-04-19T07:05:07;19.25;;;12.50;;
42084;SDS011;27746;52.228;20.890;2023-04-19T07:07:38;17.05;;;10.63;;
42084;SDS011;27746;52.228;20.890;2023-04-19T07:10:06;17.92;;;11.75;;
42084;SDS011;27746;52.228;20.890;2023-04-19T07:12:34;24.00;;;13.27;;
42084;SDS011;27746;52.228;20.890;2023-04-19T07:15:01;19.35;;;12.25;;
42084;SDS011;27746;52.228;20.890;2023-04-19T07:17:28;21.05;;;13.60;;
42084;SDS011;27746;52.228;20.890;2023-04-19T07:19:55;17.40;;;12.50;;
42084;SDS011;27746;52.228;20.890;2023-04-19T07:22:22;23.45;;;13.25;;
42084;SDS011;27746;52.228;20.890;2023-04-19T07:24:50;23.42;;;14.45;;
42084;SDS011;27746;52.228;20.890;2023-04-19T07:27:17;21.30;;;14.25;;
42084;SDS011;27746;52.228;20.890;2023-04-19T07:29:44;23.65;;;13.90;;
42084;SDS011;27746;52.228;20.890;2023-04-19T07:32:11;27.50;;;13.85;;
42084;SDS011;27746;52.228;20.890;2023-04-19T07:34:39;21.98;;;13.80;;
42084;SDS011;27746;52.228;20.890;2023-04-19T07:37:07;20.88;;;13.35;;
42084;SDS011;27746;52.228;20.890;2023-04-19T07:39:34;22.42;;;15.07;;
42084;SDS011;27746;52.228;20.890;2023-04-19T07:42:02;20.10;;;12.65;;
42084;SDS011;27746;52.228;20.890;2023-04-19T07:44:29;21.50;;;13.65;;
42084;SDS011;27746;52.228;20.890;2023-04-19T07:46:57;17.90;;;13.50;;
42084;SDS011;27746;52.228;20.890;2023-04-19T07:49:23;21.20;;;14.23;;
42084;SDS011;27746;52.228;20.890;2023-04-19T07:51:51;20.80;;;13.50;;
42084;SDS011;27746;52.228;20.890;2023-04-19T07:54:17;22.05;;;13.07;;
42084;SDS011;27746;52.228;20.890;2023-04-19T07:56:45;21.17;;;13.60;;
42084;SDS011;27746;52.228;20.890;2023-04-19T07:59:13;18.58;;;12.88;;
42084;SDS011;27746;52.228;20.890;2023-04-19T08:01:40;17.00;;;12.20;;
42084;SDS011;27746;52.228;20.890;2023-04-19T08:04:07;16.45;;;11.63;;
42084;SDS011;27746;52.228;20.890;2023-04-19T08:06:34;18.83;;;12.68;;
42084;SDS011;27746;52.228;20.890;2023-04-19T08:09:03;17.15;;;10.70;;
42084;SDS011;27746;52.228;20.890;2023-04-19T08:11:30;17.95;;;11.75;;
42084;SDS011;27746;52.228;20.890;2023-04-19T08:13:57;15.70;;;10.75;;
42084;SDS011;27746;52.228;20.890;2023-04-19T08:16:26;17.13;;;11.32;;
42084;SDS011;27746;52.228;20.890;2023-04-19T08:18:53;15.52;;;11.30;;
42084;SDS011;27746;52.228;20.890;2023-04-19T08:21:20;16.45;;;10.75;;
42084;SDS011;27746;52.228;20.890;2023-04-19T08:23:47;17.25;;;11.13;;
42084;SDS011;27746;52.228;20.890;2023-04-19T08:26:14;13.27;;;9.45;;
42084;SDS011;27746;52.228;20.890;2023-04-19T08:28:41;16.15;;;11.10;;
42084;SDS011;27746;52.228;20.890;2023-04-19T08:31:08;18.63;;;11.70;;
42084;SDS011;27746;52.228;20.890;2023-04-19T08:33:36;15.63;;;10.85;;
42084;SDS011;27746;52.228;20.890;2023-04-19T08:36:04;17.40;;;10.85;;
42084;SDS011;27746;52.228;20.890;2023-04-19T08:38:31;14.20;;;10.43;;
42084;SDS011;27746;52.228;20.890;2023-04-19T08:40:58;17.55;;;10.48;;
42084;SDS011;27746;52.228;20.890;2023-04-19T08:43:27;14.80;;;10.20;;
42084;SDS011;27746;52.228;20.890;2023-04-19T08:45:57;17.80;;;12.05;;
42084;SDS011;27746;52.228;20.890;2023-04-19T08:48:24;19.75;;;12.70;;
42084;SDS011;27746;52.228;20.890;2023-04-19T08:50:54;17.35;;;10.85;;
42084;SDS011;27746;52.228;20.890;2023-04-19T08:53:22;14.95;;;10.27;;
42084;SDS011;27746;52.228;20.890;2023-04-19T08:55:53;15.07;;;10.65;;
42084;SDS011;27746;52.228;20.890;2023-04-19T08:58:23;17.30;;;10.20;;
42084;SDS011;27746;52.228;20.890;2023-04-19T09:00:49;13.45;;;9.18;;
42084;SDS011;27746;52.228;20.890;2023-04-19T09:03:16;15.88;;;10.10;;
42084;SDS011;27746;52.228;20.890;2023-04-19T09:05:43;13.75;;;9.43;;
42084;SDS011;27746;52.228;20.890;2023-04-19T09:08:21;13.70;;;8.88;;
42084;SDS011;27746;52.228;20.890;2023-04-19T09:10:54;14.88;;;9.48;;
42084;SDS011;27746;52.228;20.890;2023-04-19T09:13:22;13.45;;;9.00;;
42084;SDS011;27746;52.228;20.890;2023-04-19T09:15:49;12.60;;;9.40;;
42084;SDS011;27746;52.228;20.890;2023-04-19T09:18:17;13.05;;;9.52;;
42084;SDS011;27746;52.228;20.890;2023-04-19T09:20:45;10.90;;;7.53;;
42084;SDS011;27746;52.228;20.890;2023-04-19T09:23:13;12.77;;;8.52;;
42084;SDS011;27746;52.228;20.890;2023-04-19T09:25:50;13.23;;;8.73;;
42084;SDS011;27746;52.228;20.890;2023-04-19T09:28:18;12.68;;;8.85;;
42084;SDS011;27746;52.228;20.890;2023-04-19T09:30:45;14.50;;;9.00;;
42084;SDS011;27746;52.228;20.890;2023-04-19T09:33:13;41.65;;;14.10;;
42084;SDS011;27746;52.228;20.890;2023-04-19T09:35:58;14.15;;;9.40;;
42084;SDS011;27746;52.228;20.890;2023-04-19T09:38:26;13.05;;;7.88;;
42084;SDS011;27746;52.228;20.890;2023-04-19T09:41:05;13.02;;;8.52;;
42084;SDS011;27746;52.228;20.890;2023-04-19T09:43:33;18.00;;;9.90;;
42084;SDS011;27746;52.228;20.890;2023-04-19T09:46:00;14.88;;;9.05;;
42084;SDS011;27746;52.228;20.890;2023-04-19T09:48:27;16.20;;;9.73;;
42084;SDS011;27746;52.228;20.890;2023-04-19T09:50:54;17.92;;;8.85;;
42084;SDS011;27746;52.228;20.890;2023-04-19T09:53:22;13.77;;;8.23;;
42084;SDS011;27746;52.228;20.890;2023-04-19T09:55:50;11.93;;;8.25;;
42084;SDS011;27746;52.228;20.890;2023-04-19T09:58:18;80.40;;;14.85;;
42084;SDS011;27746;52.228;20.890;2023-04-19T10:00:47;14.25;;;8.73;;
42084;SDS011;27746;52.228;20.890;2023-04-19T10:03:16;12.85;;;7.85;;
42084;SDS011;27746;52.228;20.890;2023-04-19T10:05:44;12.93;;;7.97;;
42084;SDS011;27746;52.228;20.890;2023-04-19T10:08:11;26.77;;;10.20;;
42084;SDS011;27746;52.228;20.890;2023-04-19T10:10:38;13.80;;;8.70;;
42084;SDS011;27746;52.228;20.890;2023-04-19T10:13:07;15.30;;;8.85;;
42084;SDS011;27746;52.228;20.890;2023-04-19T10:15:38;12.60;;;8.50;;
42084;SDS011;27746;52.228;20.890;2023-04-19T10:18:07;12.82;;;8.05;;
42084;SDS011;27746;52.228;20.890;2023-04-19T10:20:36;14.90;;;9.18;;
42084;SDS011;27746;52.228;20.890;2023-04-19T10:23:17;13.13;;;9.23;;
42084;SDS011;27746;52.228;20.890;2023-04-19T10:25:45;12.13;;;8.65;;
42084;SDS011;27746;52.228;20.890;2023-04-19T10:28:14;16.25;;;8.50;;
42084;SDS011;27746;52.228;20.890;2023-04-19T10:30:52;11.07;;;8.02;;
42084;SDS011;27746;52.228;20.890;2023-04-19T10:33:24;13.82;;;8.20;;
42084;SDS011;27746;52.228;20.890;2023-04-19T10:35:54;12.40;;;8.40;;
42084;SDS011;27746;52.228;20.890;2023-04-19T10:38:21;12.35;;;8.25;;
42084;SDS011;27746;52.228;20.890;2023-04-19T10:41:01;12.63;;;8.38;;
42084;SDS011;27746;52.228;20.890;2023-04-19T10:43:29;10.98;;;8.05;;
42084;SDS011;27746;52.228;20.890;2023-04-19T10:46:05;11.85;;;7.43;;
42084;SDS011;27746;52.228;20.890;2023-04-19T10:48:34;10.93;;;8.10;;
42084;SDS011;27746;52.228;20.890;2023-04-19T10:51:10;15.32;;;7.70;;
42084;SDS011;27746;52.228;20.890;2023-04-19T10:53:47;11.95;;;7.50;;
42084;SDS011;27746;52.228;20.890;2023-04-19T10:56:16;11.55;;;8.15;;
42084;SDS011;27746;52.228;20.890;2023-04-19T11:01:48;13.38;;;8.15;;
42084;SDS011;27746;52.228;20.890;2023-04-19T11:04:17;13.02;;;7.20;;
42084;SDS011;27746;52.228;20.890;2023-04-19T11:06:58;12.63;;;8.50;;
42084;SDS011;27746;52.228;20.890;2023-04-19T11:09:28;14.10;;;8.52;;
42084;SDS011;27746;52.228;20.890;2023-04-19T11:11:57;12.48;;;7.57;;
42084;SDS011;27746;52.228;20.890;2023-04-19T11:14:27;14.57;;;7.35;;
42084;SDS011;27746;52.228;20.890;2023-04-19T11:17:01;13.63;;;7.70;;
42084;SDS011;27746;52.228;20.890;2023-04-19T11:19:30;12.23;;;7.65;;
42084;SDS011;27746;52.228;20.890;2023-04-19T11:21:57;11.48;;;7.57;;
42084;SDS011;27746;52.228;20.890;2023-04-19T11:24:25;14.48;;;8.18;;
42084;SDS011;27746;52.228;20.890;2023-04-19T11:26:52;12.85;;;7.97;;
42084;SDS011;27746;52.228;20.890;2023-04-19T11:29:22;14.40;;;8.48;;
42084;SDS011;27746;52.228;20.890;2023-04-19T11:31:49;11.38;;;7.68;;
42084;SDS011;27746;52.228;20.890;2023-04-19T11:34:17;14.70;;;8.13;;
42084;SDS011;27746;52.228;20.890;2023-04-19T11:36:49;10.23;;;6.72;;
42084;SDS011;27746;52.228;20.890;2023-04-19T11:39:16;12.27;;;7.63;;
42084;SDS011;27746;52.228;20.890;2023-04-19T11:41:45;12.40;;;8.18;;
42084;SDS011;27746;52.228;20.890;2023-04-19T11:44:12;10.82;;;7.32;;
42084;SDS011;27746;52.228;20.890;2023-04-19T11:46:40;14.10;;;7.57;;
42084;SDS011;27746;52.228;20.890;2023-04-19T11:49:07;14.75;;;7.88;;
42084;SDS011;27746;52.228;20.890;2023-04-19T11:51:39;12.18;;;7.68;;
42084;SDS011;27746;52.228;20.890;2023-04-19T11:54:11;11.77;;;6.95;;
42084;SDS011;27746;52.228;20.890;2023-04-19T11:56:55;13.57;;;7.88;;
42084;SDS011;27746;52.228;20.890;2023-04-19T11:59:29;11.75;;;7.95;;
42084;SDS011;27746;52.228;20.890;2023-04-19T12:02:03;11.77;;;8.02;;
42084;SDS011;27746;52.228;20.890;2023-04-19T12:04:31;10.77;;;7.00;;
42084;SDS011;27746;52.228;20.890;2023-04-19T12:07:00;13.20;;;7.85;;
42084;SDS011;27746;52.228;20.890;2023-04-19T12:09:28;12.93;;;7.63;;
42084;SDS011;27746;52.228;20.890;2023-04-19T12:11:57;12.07;;;8.07;;
42084;SDS011;27746;52.228;20.890;2023-04-19T12:14:27;10.73;;;6.97;;
42084;SDS011;27746;52.228;20.890;2023-04-19T12:17:05;10.45;;;6.90;;
42084;SDS011;27746;52.228;20.890;2023-04-19T12:19:36;9.77;;;6.78;;
42084;SDS011;27746;52.228;20.890;2023-04-19T12:22:09;11.35;;;7.28;;
42084;SDS011;27746;52.228;20.890;2023-04-19T12:24:37;11.00;;;6.95;;
42084;SDS011;27746;52.228;20.890;2023-04-19T12:27:04;14.98;;;7.43;;
42084;SDS011;27746;52.228;20.890;2023-04-19T12:29:31;10.77;;;7.20;;
42084;SDS011;27746;52.228;20.890;2023-04-19T12:31:59;10.70;;;6.97;;
42084;SDS011;27746;52.228;20.890;2023-04-19T12:34:26;16.60;;;7.93;;
42084;SDS011;27746;52.228;20.890;2023-04-19T12:36:53;9.25;;;6.53;;
42084;SDS011;27746;52.228;20.890;2023-04-19T12:39:21;11.27;;;6.93;;
42084;SDS011;27746;52.228;20.890;2023-04-19T12:41:48;10.18;;;7.53;;
42084;SDS011;27746;52.228;20.890;2023-04-19T12:44:15;16.02;;;8.07;;
42084;SDS011;27746;52.228;20.890;2023-04-19T12:46:42;12.35;;;8.15;;
42084;SDS011;27746;52.228;20.890;2023-04-19T12:49:09;20.38;;;12.10;;
42084;SDS011;27746;52.228;20.890;2023-04-19T12:51:36;16.70;;;10.40;;
42084;SDS011;27746;52.228;20.890;2023-04-19T12:54:03;12.32;;;8.15;;
42084;SDS011;27746;52.228;20.890;2023-04-19T12:56:33;14.38;;;8.52;;
42084;SDS011;27746;52.228;20.890;2023-04-19T12:59:00;15.13;;;8.65;;
42084;SDS011;27746;52.228;20.890;2023-04-19T13:01:27;14.18;;;9.32;;
42084;SDS011;27746;52.228;20.890;2023-04-19T13:03:54;13.95;;;8.85;;
42084;SDS011;27746;52.228;20.890;2023-04-19T13:06:20;13.70;;;8.80;;
42084;SDS011;27746;52.228;20.890;2023-04-19T13:08:47;13.60;;;9.55;;
42084;SDS011;27746;52.228;20.890;2023-04-19T13:11:15;14.77;;;10.05;;
42084;SDS011;27746;52.228;20.890;2023-04-19T13:13:48;14.90;;;10.65;;
42084;SDS011;27746;52.228;20.890;2023-04-19T13:16:16;14.52;;;9.48;;
42084;SDS011;27746;52.228;20.890;2023-04-19T13:18:44;12.70;;;9.30;;
42084;SDS011;27746;52.228;20.890;2023-04-19T13:21:11;15.45;;;9.77;;
42084;SDS011;27746;52.228;20.890;2023-04-19T13:23:38;15.75;;;8.85;;
42084;SDS011;27746;52.228;20.890;2023-04-19T13:26:05;14.15;;;8.95;;
42084;SDS011;27746;52.228;20.890;2023-04-19T13:28:32;15.75;;;8.57;;
42084;SDS011;27746;52.228;20.890;2023-04-19T13:31:02;18.25;;;9.90;;
42084;SDS011;27746;52.228;20.890;2023-04-19T13:33:29;16.33;;;9.38;;
42084;SDS011;27746;52.228;20.890;2023-04-19T13:35:56;14.73;;;8.00;;
42084;SDS011;27746;52.228;20.890;2023-04-19T13:38:23;10.65;;;7.35;;
42084;SDS011;27746;52.228;20.890;2023-04-19T13:40:51;12.75;;;7.60;;
42084;SDS011;27746;52.228;20.890;2023-04-19T13:43:18;13.05;;;8.27;;
42084;SDS011;27746;52.228;20.890;2023-04-19T13:45:46;11.75;;;8.63;;
42084;SDS011;27746;52.228;20.890;2023-04-19T13:48:14;12.23;;;6.70;;
42084;SDS011;27746;52.228;20.890;2023-04-19T13:50:41;8.40;;;5.88;;
42084;SDS011;27746;52.228;20.890;2023-04-19T13:53:08;8.60;;;5.55;;
42084;SDS011;27746;52.228;20.890;2023-04-19T13:55:35;10.80;;;5.82;;
42084;SDS011;27746;52.228;20.890;2023-04-19T13:58:02;9.55;;;6.13;;
42084;SDS011;27746;52.228;20.890;2023-04-19T14:00:29;9.23;;;5.88;;
42084;SDS011;27746;52.228;20.890;2023-04-19T14:02:56;10.40;;;6.75;;
42084;SDS011;27746;52.228;20.890;2023-04-19T14:05:24;11.05;;;6.43;;
42084;SDS011;27746;52.228;20.890;2023-04-19T14:07:51;9.38;;;6.22;;
42084;SDS011;27746;52.228;20.890;2023-04-19T14:10:18;10.43;;;6.20;;
42084;SDS011;27746;52.228;20.890;2023-04-19T14:12:45;11.23;;;6.30;;
42084;SDS011;27746;52.228;20.890;2023-04-19T14:15:13;11.80;;;7.53;;
42084;SDS011;27746;52.228;20.890;2023-04-19T14:17:40;10.52;;;6.80;;
42084;SDS011;27746;52.228;20.890;2023-04-19T14:20:07;10.35;;;6.53;;
42084;SDS011;27746;52.228;20.890;2023-04-19T14:22:36;13.30;;;7.03;;
42084;SDS011;27746;52.228;20.890;2023-04-19T14:25:03;10.05;;;5.82;;
42084;SDS011;27746;52.228;20.890;2023-04-19T14:27:31;13.15;;;8.02;;
42084;SDS011;27746;52.228;20.890;2023-04-19T14:29:58;12.35;;;6.97;;